Briefing drone pour Chambery (LFLB)

Rechercher une autre localisation

Conditions de vol :


Nous sommes le : Dimanche 25 février 2024
Il est 23:40 UTC (00:40 LT)

Lever de soleil : 05:55 UTC (06:55 LT)
Coucher de soleil : 17:43 UTC (18:43 LT)

Météo

L'essentiel des conditions de vol

VIGILANCE MÉTÉO FRANCE - Savoie (73)
Vigilance Jaune : Pluie-inondation / Avalanches
CARTE TEMSI
CARTES DES FRONTS
METAR de LFLB
LFLB 242330Z AUTO 16006KT CAVOK 02/M00 Q1009

Date d'émission: 24/02/2024
Heure d'émission: 23:30 UTC
Vent: 160° pour 6 KT (11 km/h)
Visibilité horizontale: > 10 km
Plafond : Plafond et visibilité OK (CAVOK)
Température: 2 °C
Point de rosée: 0 °C
Humidité: 87%
Pression (QNH): 1009 hPa
TAF de LFLB
LFLB 221829Z 2218/2315 CNL

Conditions prévues :

Heure d'émission : Bulletin éffectué le 22 à 18:00 UTC
Prévision : Valide du 22 a 18:00 UTC au 23 a 15:00 UTC
Nuages : à 0ft (0 m)
WEBCAM POUR CHAMBERY

Réglementation

Voler en sécurité

CARTES AERONAUTIQUE 1/500.000
CARTE AZBA (Reseau basse altitude)
CARTES VAC (LFLB)
SUP AIP




Chargement des AIP...
NOTAM (CHAMBERY + Terrain à proximité / FIR )




Chargement des NOTAMS...
CONTACT PREFECTURE 73
Savoie (73) : [email protected]


Avertissement : Les données mises à disposition sont indicatives. Oxygène Drone ne pourra être tenu responsable de dégâts causés aux biens et aux personnes.